Time;durP1;ratioP1;P1;durP2;ratioP2;P2;SDS_P1;SDS_P2;PMS_P1;PMS_P2;Temp;Humidity;BMP_temperature;BMP_pressure;BME280_temperature;BME280_humidity;BME280_pressure;Samples;Min_cycle;Max_cycle;Signal;HPM_P1;HPM_P2
2022/06/15 00:00:23;;;;;;;12.70;10.15;;;12.50;99.90;;;;;;5051192;28;20045;-67
2022/06/15 00:02:48;;;;;;;15.63;10.68;;;12.50;99.90;;;;;;5042042;28;20064;-67
2022/06/15 00:05:14;;;;;;;17.17;10.20;;;12.50;99.90;;;;;;5050267;28;20481;-67
2022/06/15 00:07:40;;;;;;;13.20;9.50;;;12.40;99.90;;;;;;5051017;28;20052;-67
2022/06/15 00:10:06;;;;;;;14.90;9.65;;;12.40;99.90;;;;;;5050341;28;20041;-67
2022/06/15 00:12:32;;;;;;;14.80;10.82;;;;;;;;;;5050362;28;20120;-67
2022/06/15 00:14:58;;;;;;;14.63;10.45;;;;;;;;;;5050634;28;20398;-67
2022/06/15 00:17:25;;;;;;;14.88;9.85;;;;;;;;;;5049785;28;20045;-68
2022/06/15 00:19:54;;;;;;;10.60;8.63;;;;;;;;;;5033051;28;20047;-67
2022/06/15 00:22:21;;;;;;;12.65;9.57;;;;;;;;;;5050744;28;20498;-67
2022/06/15 00:24:50;;;;;;;12.10;9.23;;;;;;;;;;5051201;28;20051;-67
2022/06/15 00:27:18;;;;;;;15.30;8.80;;;;;;;;;;5051213;28;20043;-67
2022/06/15 00:29:44;;;;;;;12.00;9.30;;;;;;;;;;5050162;28;20516;-67
2022/06/15 00:32:11;;;;;;;13.27;8.90;;;;;;;;;;5043596;28;20075;-68
2022/06/15 00:34:38;;;;;;;11.68;8.68;;;;;;;;;;5031606;28;20459;-67
2022/06/15 00:37:05;;;;;;;11.43;8.75;;;;;;;;;;5030696;28;20041;-67
2022/06/15 00:39:32;;;;;;;13.20;8.88;;;;;;;;;;5034225;28;20513;-67
2022/06/15 00:41:59;;;;;;;13.52;8.98;;;;;;;;;;5051997;28;20049;-67
2022/06/15 00:44:25;;;;;;;13.77;8.43;;;;;;;;;;5054832;28;20037;-67
2022/06/15 00:46:56;;;;;;;12.02;9.68;;;;;;;;;;5053159;28;20627;-67
2022/06/15 00:49:27;;;;;;;12.50;8.48;;;;;;;;;;5044727;28;20516;-68
2022/06/15 00:51:56;;;;;;;12.65;8.98;;;;;;;;;;5034185;28;20041;-68
2022/06/15 00:54:22;;;;;;;12.57;8.50;;;;;;;;;;5034844;28;20459;-67
2022/06/15 00:56:49;;;;;;;12.57;8.73;;;;;;;;;;5035307;28;20122;-68
2022/06/15 00:59:21;;;;;;;11.80;8.75;;;;;;;;;;5034071;28;20042;-67
2022/06/15 01:01:47;;;;;;;10.75;8.00;;;;;;;;;;5033544;28;20537;-67
2022/06/15 01:04:13;;;;;;;11.25;7.82;;;;;;;;;;5034080;28;20045;-67
2022/06/15 01:06:39;;;;;;;11.40;8.60;;;;;;;;;;5035278;28;20584;-68
2022/06/15 01:09:20;;;;;;;11.75;8.77;;;11.90;99.90;;;;;;5049987;28;20481;-67
2022/06/15 01:12:14;;;;;;;12.48;8.45;;;11.90;99.90;;;;;;5053933;28;20045;-67
2022/06/15 01:15:08;;;;;;;10.88;8.65;;;11.70;99.90;;;;;;5053366;28;20049;-67
2022/06/15 01:17:45;;;;;;;12.65;8.85;;;11.80;99.90;;;;;;5054093;28;20425;-67
2022/06/15 01:20:39;;;;;;;9.88;8.48;;;10.90;99.90;;;;;;5054815;28;20040;-67
2022/06/15 01:23:26;;;;;;;12.25;9.15;;;11.60;99.90;;;;;;5053725;28;20045;-67
2022/06/15 01:26:13;;;;;;;13.02;8.93;;;11.50;99.90;;;;;;5036726;28;20045;-67
2022/06/15 01:28:48;;;;;;;11.93;8.93;;;11.50;99.90;;;;;;5047956;28;20041;-67
2022/06/15 01:31:33;;;;;;;11.80;10.25;;;11.50;99.90;;;;;;5033641;28;20049;-67
2022/06/15 01:34:23;;;;;;;9.77;7.88;;;11.40;99.90;;;;;;5034528;28;20041;-67
2022/06/15 01:37:10;;;;;;;10.40;8.13;;;11.30;99.90;;;;;;5032745;28;20441;-67
2022/06/15 01:39:36;;;;;;;13.20;8.93;;;;;;;;;;5036102;28;20046;-67
2022/06/15 01:42:15;;;;;;;9.95;7.72;;;11.40;99.90;;;;;;5032716;28;20372;-67
2022/06/15 01:44:46;;;;;;;10.20;8.40;;;;;;;;;;5034198;28;20048;-67
2022/06/15 01:47:18;;;;;;;10.02;7.75;;;;;;;;;;5034710;28;20064;-67
2022/06/15 01:49:47;;;;;;;10.07;8.10;;;;;;;;;;5032439;28;20041;-67
2022/06/15 01:52:15;;;;;;;10.70;8.10;;;;;;;;;;5045565;28;20398;-67
2022/06/15 01:55:06;;;;;;;12.43;8.90;;;11.50;99.90;;;;;;5053387;28;20541;-67
2022/06/15 01:57:36;;;;;;;10.88;8.70;;;11.50;99.90;;;;;;5052505;28;20037;-67
2022/06/15 02:00:07;;;;;;;11.77;8.20;;;11.50;99.90;;;;;;5046969;28;20044;-67
2022/06/15 02:02:42;;;;;;;10.07;6.97;;;;;;;;;;5033031;28;20046;-67
2022/06/15 02:05:12;;;;;;;;;;;;;;;;;;5016534;28;20389;-67
2022/06/15 02:07:59;;;;;;;12.15;8.55;;;;;;;;;;5034631;28;19917;-67
2022/06/15 02:10:31;;;;;;;11.98;8.95;;;11.30;99.90;;;;;;5009333;28;20552;-67
2022/06/15 02:13:26;;;;;;;11.18;8.60;;;11.60;99.90;;;;;;5050982;28;20386;-67
2022/06/15 02:15:57;;;;;;;10.80;8.15;;;11.50;99.90;;;;;;5042662;28;20553;-67
2022/06/15 02:18:27;;;;;;;13.48;9.32;;;11.50;99.90;;;;;;5053347;28;20509;-67
2022/06/15 02:20:57;;;;;;;14.32;9.52;;;;;;;;;;5052213;28;20128;-67
2022/06/15 02:23:24;;;;;;;12.10;9.18;;;;;;;;;;5052504;28;20528;-67
2022/06/15 02:25:53;;;;;;;10.10;7.78;;;;;;;;;;5051872;28;20037;-67
2022/06/15 02:28:20;;;;;;;14.02;9.48;;;;;;;;;;5051226;28;20041;-67
2022/06/15 02:30:46;;;;;;;11.02;7.50;;;;;;;;;;5032075;28;20056;-67
2022/06/15 02:33:14;;;;;;;10.10;7.97;;;;;;;;;;5033096;28;20056;-67
2022/06/15 02:35:40;;;;;;;11.45;8.15;;;;;;;;;;5032844;28;20566;-67
2022/06/15 02:38:06;;;;;;;11.85;8.70;;;;;;;;;;5033082;28;20048;-67
2022/06/15 02:40:32;;;;;;;12.05;8.45;;;;;;;;;;5033174;28;20057;-67
2022/06/15 02:43:00;;;;;;;11.40;8.48;;;;;;;;;;5036417;28;20052;-67
2022/06/15 02:45:28;;;;;;;11.02;7.13;;;;;;;;;;5052382;28;20036;-67
2022/06/15 02:47:55;;;;;;;10.25;7.18;;;;;;;;;;5052665;28;20045;-67
2022/06/15 02:50:22;;;;;;;8.70;6.35;;;;;;;;;;5035679;28;20062;-67
2022/06/15 02:52:55;;;;;;;9.70;7.47;;;;;;;;;;5052971;28;20041;-67
2022/06/15 02:55:22;;;;;;;8.40;6.15;;;;;;;;;;5034895;28;20137;-67
2022/06/15 02:57:50;;;;;;;8.20;5.38;;;;;;;;;;5035117;28;20095;-67
2022/06/15 03:00:18;;;;;;;9.50;6.35;;;;;;;;;;5050911;28;20037;-67
2022/06/15 03:02:44;;;;;;;9.55;6.13;;;;;;;;;;5053092;28;20048;-67
2022/06/15 03:05:10;;;;;;;9.20;5.80;;;;;;;;;;5043005;28;20120;-67
2022/06/15 03:07:36;;;;;;;8.80;6.53;;;;;;;;;;5031298;28;20041;-67
2022/06/15 03:10:02;;;;;;;8.57;6.13;;;;;;;;;;5031408;28;20487;-67
2022/06/15 03:12:28;;;;;;;10.73;7.60;;;;;;;;;;5031509;28;20041;-67
2022/06/15 03:14:55;;;;;;;10.50;7.50;;;;;;;;;;5030588;28;20577;-67
2022/06/15 03:17:21;;;;;;;12.40;9.05;;;;;;;;;;5033054;28;20048;-67
2022/06/15 03:19:47;;;;;;;12.05;7.32;;;;;;;;;;5014782;28;20042;-67
2022/06/15 03:22:13;;;;;;;8.32;7.43;;;;;;;;;;5031035;28;20048;-67
2022/06/15 03:24:39;;;;;;;10.57;8.18;;;;;;;;;;5032689;28;20047;-67
2022/06/15 03:27:05;;;;;;;11.32;7.65;;;;;;;;;;5032294;28;20037;-67
2022/06/15 03:29:31;;;;;;;10.63;7.97;;;;;;;;;;5032460;28;20041;-67
2022/06/15 03:31:57;;;;;;;10.75;8.02;;;;;;;;;;5032054;28;20505;-67
2022/06/15 03:34:23;;;;;;;11.88;9.13;;;;;;;;;;5031336;28;20490;-67
2022/06/15 03:36:49;;;;;;;13.18;8.82;;;;;;;;;;5033898;28;20486;-67
2022/06/15 03:39:16;;;;;;;12.10;8.77;;;;;;;;;;5051128;28;20486;-67
2022/06/15 03:41:42;;;;;;;11.65;7.88;;;;;;;;;;5044043;28;20510;-67
2022/06/15 03:44:10;;;;;;;12.98;9.63;;;;;;;;;;5030407;28;20044;-67
2022/06/15 03:46:36;;;;;;;12.05;8.80;;;;;;;;;;5032798;28;20040;-67
2022/06/15 03:49:02;;;;;;;11.90;9.27;;;;;;;;;;5031714;28;20041;-67
2022/06/15 03:51:28;;;;;;;13.10;9.20;;;;;;;;;;5030690;28;20486;-67
2022/06/15 03:53:54;;;;;;;11.50;8.50;;;;;;;;;;5031804;28;20513;-67
2022/06/15 03:56:20;;;;;;;10.43;7.82;;;;;;;;;;5031868;28;20140;-67
2022/06/15 03:58:47;;;;;;;10.20;7.90;;;;;;;;;;5030866;28;20045;-67
2022/06/15 04:01:13;;;;;;;12.35;9.32;;;;;;;;;;5032222;28;20045;-67
2022/06/15 04:03:39;;;;;;;11.05;7.93;;;;;;;;;;5030481;28;20045;-67
2022/06/15 04:06:06;;;;;;;10.23;7.97;;;;;;;;;;5031685;28;20041;-67
2022/06/15 04:08:35;;;;;;;13.32;8.63;;;;;;;;;;5030747;28;20077;-67
2022/06/15 04:11:06;;;;;;;11.00;8.18;;;;;;;;;;5031574;28;20514;-67
2022/06/15 04:13:32;;;;;;;10.82;6.90;;;;;;;;;;5050656;28;20094;-67
2022/06/15 04:15:58;;;;;;;11.27;7.75;;;;;;;;;;5050495;28;20117;-66
2022/06/15 04:18:24;;;;;;;11.57;7.68;;;;;;;;;;5050457;28;20040;-67
2022/06/15 04:20:51;;;;;;;11.45;8.18;;;;;;;;;;5033523;28;20171;-67
2022/06/15 04:23:18;;;;;;;10.30;8.07;;;;;;;;;;5050394;28;20049;-67
2022/06/15 04:25:57;;;;;;;11.77;8.07;;;;;;;;;;5049693;28;20490;-67
2022/06/15 04:28:24;;;;;;;12.15;8.55;;;;;;;;;;5050824;28;20052;-67
2022/06/15 04:30:50;;;;;;;13.25;9.43;;;12.20;99.90;;;;;;5049910;28;20049;-67
2022/06/15 04:33:16;;;;;;;14.90;9.65;;;12.00;99.90;;;;;;5051367;28;20170;-67
2022/06/15 04:35:43;;;;;;;12.20;8.65;;;;;;;;;;5052082;28;20069;-67
2022/06/15 04:38:10;;;;;;;12.20;7.80;;;;;;;;;;5050295;28;20644;-67
2022/06/15 04:40:37;;;;;;;13.00;9.45;;;;;;;;;;5032691;28;20103;-67
2022/06/15 04:43:04;;;;;;;13.10;8.68;;;;;;;;;;5030312;28;20445;-67
2022/06/15 04:45:30;;;;;;;14.07;8.23;;;;;;;;;;5031706;28;20055;-67
2022/06/15 04:47:56;;;;;;;10.85;8.23;;;;;;;;;;5013602;28;20382;-67
2022/06/15 04:50:22;;;;;;;13.90;8.55;;;;;;;;;;5032163;28;20044;-67
2022/06/15 04:52:48;;;;;;;13.52;9.10;;;;;;;;;;5029448;28;20049;-67
2022/06/15 04:55:18;;;;;;;13.65;8.70;;;;;;;;;;5046699;28;20047;-67
2022/06/15 04:57:44;;;;;;;11.45;8.25;;;;;;;;;;5050342;28;20040;-67
2022/06/15 05:00:13;;;;;;;15.40;7.63;;;;;;;;;;5050884;28;20127;-66
2022/06/15 05:02:39;;;;;;;12.55;7.45;;;13.30;99.90;;;;;;5050414;28;20049;-67
2022/06/15 05:05:05;;;;;;;12.15;7.13;;;;;;;;;;5050885;28;20375;-66
2022/06/15 05:07:31;;;;;;;11.80;7.47;;;;;;;;;;5046528;28;20041;-67
2022/06/15 05:09:57;;;;;;;11.40;6.65;;;;;;;;;;5029859;28;20510;-67
2022/06/15 05:12:24;;;;;;;11.80;6.78;;;;;;;;;;5046796;28;20048;-67
2022/06/15 05:14:50;;;;;;;9.57;5.68;;;;;;;;;;5040278;28;20045;-67
2022/06/15 05:17:17;;;;;;;12.25;6.55;;;;;;;;;;5051622;28;20041;-67
2022/06/15 05:19:42;;;;;;;11.82;6.13;;;14.20;99.90;;;;;;5037449;28;20041;-67
2022/06/15 05:22:08;;;;;;;12.18;6.00;;;14.20;99.90;;;;;;5029532;28;20057;-67
2022/06/15 05:24:34;;;;;;;9.40;5.80;;;14.20;99.90;;;;;;5038036;28;20060;-67
2022/06/15 05:27:00;;;;;;;12.18;6.97;;;14.50;99.90;;;;;;5054256;28;20047;-67
2022/06/15 05:29:26;;;;;;;9.95;6.25;;;14.50;99.90;;;;;;5053312;28;20405;-67
2022/06/15 05:31:52;;;;;;;10.75;5.93;;;14.70;99.90;;;;;;5053008;28;20542;-67
2022/06/15 05:34:18;;;;;;;10.98;5.68;;;14.80;99.90;;;;;;5053666;28;20049;-67
2022/06/15 05:36:44;;;;;;;12.13;5.70;;;14.90;99.90;;;;;;5054306;28;20504;-67
2022/06/15 05:39:10;;;;;;;10.02;5.55;;;15.00;99.90;;;;;;5048925;28;20037;-67
2022/06/15 05:41:36;;;;;;;10.52;5.38;;;15.10;99.90;;;;;;5034646;28;20452;-67
2022/06/15 05:44:03;;;;;;;9.50;4.80;;;15.30;99.90;;;;;;5033554;28;20041;-67
2022/06/15 05:46:32;;;;;;;9.75;5.70;;;15.30;99.90;;;;;;5034925;28;20462;-67
2022/06/15 05:48:59;;;;;;;9.75;5.60;;;;;;;;;;5015729;28;20037;-67
2022/06/15 05:51:25;;;;;;;9.32;4.88;;;;;;;;;;5033410;28;20079;-67
2022/06/15 05:53:51;;;;;;;8.75;4.50;;;;;;;;;;5039323;28;20041;-67
2022/06/15 05:56:18;;;;;;;9.68;5.10;;;;;;;;;;5054028;28;20037;-67
2022/06/15 05:58:46;;;;;;;11.00;4.65;;;;;;;;;;5054107;28;20048;-67
2022/06/15 06:01:27;;;;;;;8.45;4.10;;;;;;;;;;5053952;28;20044;-67
2022/06/15 06:03:53;;;;;;;10.40;4.32;;;16.20;99.90;;;;;;5041230;28;20406;-67
2022/06/15 06:06:19;;;;;;;9.13;4.57;;;;;;;;;;5033398;28;20037;-67
2022/06/15 06:08:45;;;;;;;8.60;4.40;;;;;;;;;;5033921;28;20475;-67
2022/06/15 06:11:11;;;;;;;7.22;4.10;;;16.20;99.90;;;;;;5015743;28;20083;-67
2022/06/15 06:13:37;;;;;;;8.57;3.35;;;16.30;99.90;;;;;;5033395;28;20077;-67
2022/06/15 06:16:03;;;;;;;9.50;4.53;;;16.30;99.90;;;;;;5033495;28;20124;-67
2022/06/15 06:18:28;;;;;;;9.02;3.80;;;16.20;99.90;;;;;;5033599;28;20052;-67
2022/06/15 06:20:54;;;;;;;9.40;4.38;;;16.20;99.90;;;;;;5032479;28;20045;-67
2022/06/15 06:23:20;;;;;;;8.50;4.50;;;16.10;99.90;;;;;;5038787;28;20040;-67
2022/06/15 06:25:50;;;;;;;13.30;5.47;;;16.30;99.90;;;;;;5035365;28;20512;-68
2022/06/15 06:28:31;;;;;;;11.00;5.18;;;16.70;99.90;;;;;;5034342;28;20039;-67
2022/06/15 06:30:59;;;;;;;9.27;4.65;;;16.40;99.90;;;;;;5051905;28;20053;-67
2022/06/15 06:33:26;;;;;;;9.90;4.60;;;16.20;99.90;;;;;;5051994;28;20135;-67
2022/06/15 06:35:54;;;;;;;9.10;5.32;;;16.20;99.90;;;;;;5050519;28;20094;-67
2022/06/15 06:38:21;;;;;;;7.55;4.80;;;16.20;99.90;;;;;;5053099;28;20044;-68
2022/06/15 06:40:50;;;;;;;7.60;4.13;;;;;;;;;;5035634;28;20123;-68
2022/06/15 06:43:16;;;;;;;9.20;4.13;;;;;;;;;;5047210;28;20037;-68
2022/06/15 06:45:42;;;;;;;14.10;4.43;;;;;;;;;;5048798;28;20048;-68
2022/06/15 06:48:08;;;;;;;7.80;3.35;;;;;;;;;;5032357;28;20045;-68
2022/06/15 06:50:35;;;;;;;7.25;3.22;;;;;;;;;;5032162;28;20044;-68
2022/06/15 06:53:02;;;;;;;7.20;3.47;;;;;;;;;;5033349;28;20049;-68
2022/06/15 06:55:28;;;;;;;6.90;3.05;;;;;;;;;;5035680;28;20044;-68
2022/06/15 06:57:57;;;;;;;8.07;3.80;;;;;;;;;;5052758;28;20383;-68
2022/06/15 07:00:24;;;;;;;9.10;3.53;;;;;;;;;;5052805;28;20051;-67
2022/06/15 07:02:50;;;;;;;7.93;3.30;;;;;;;;;;5048586;28;20080;-68
2022/06/15 07:05:16;;;;;;;7.40;3.58;;;;;;;;;;5050657;28;20037;-68
2022/06/15 07:07:42;;;;;;;8.85;3.03;;;;;;;;;;5050880;28;20382;-68
2022/06/15 07:10:09;;;;;;;6.38;2.97;;;;;;;;;;5045086;28;20099;-67
2022/06/15 07:12:36;;;;;;;8.75;2.90;;;;;;;;;;5052726;28;20041;-68
2022/06/15 07:15:03;;;;;;;6.97;2.92;;;;;;;;;;5050773;28;20052;-68
2022/06/15 07:17:29;;;;;;;5.60;3.03;;;16.60;99.90;;;;;;5030375;28;20053;-68
2022/06/15 07:19:56;;;;;;;8.57;2.78;;;;;;;;;;5038533;28;20049;-69
2022/06/15 07:22:22;;;;;;;5.95;2.65;;;;;;;;;;5049957;28;20084;-69
2022/06/15 07:24:48;;;;;;;9.68;2.85;;;;;;;;;;5049179;28;20041;-68
2022/06/15 07:27:15;;;;;;;6.85;2.95;;;17.00;99.90;;;;;;5048786;28;20045;-68
2022/06/15 07:29:41;;;;;;;7.13;3.28;;;17.00;99.90;;;;;;5053768;28;20032;-68
2022/06/15 07:32:08;;;;;;;11.85;3.83;;;;;;;;;;5068563;28;20059;-68
2022/06/15 07:34:34;;;;;;;9.23;2.92;;;17.50;99.90;;;;;;5051136;28;20045;-69
2022/06/15 07:37:00;;;;;;;8.30;3.00;;;17.60;99.90;;;;;;5028463;28;20048;-69
2022/06/15 07:39:29;;;;;;;7.18;2.45;;;17.70;99.90;;;;;;5012166;28;20045;-68
2022/06/15 07:41:56;;;;;;;9.75;3.03;;;17.90;99.90;;;;;;5011405;28;20132;-68
2022/06/15 07:44:24;;;;;;;7.97;2.35;;;18.10;99.90;;;;;;5030296;28;20046;-68
2022/06/15 07:49:54;;;;;;;7.07;2.33;;;18.20;99.90;;;;;;5029355;28;20041;-68
2022/06/15 07:49:54;;;;;;;6.28;2.33;;;18.20;99.90;;;;;;5030155;28;20052;-68
2022/06/15 07:52:22;;;;;;;4.40;2.20;;;18.30;99.90;;;;;;5044413;28;20041;-68
2022/06/15 07:54:49;;;;;;;5.00;1.90;;;18.30;99.90;;;;;;5038107;28;20405;-69
2022/06/15 07:57:15;;;;;;;4.88;2.03;;;18.50;99.90;;;;;;5036054;28;20043;-69
2022/06/15 07:59:41;;;;;;;7.13;2.38;;;18.40;99.90;;;;;;5038245;28;20033;-69
2022/06/15 08:02:08;;;;;;;6.18;2.13;;;18.40;99.90;;;;;;5036672;28;20041;-69
2022/06/15 08:04:33;;;;;;;9.30;2.58;;;18.40;99.90;;;;;;5044990;28;20041;-69
2022/06/15 08:06:59;;;;;;;5.90;2.78;;;18.50;99.90;;;;;;5047719;28;20041;-69
2022/06/15 08:09:25;;;;;;;8.07;2.83;;;18.40;99.90;;;;;;5048613;28;20033;-69
2022/06/15 08:14:37;;;;;;;9.17;2.57;;;18.60;99.90;;;;;;5046903;28;20045;-69
2022/06/15 08:17:05;;;;;;;6.10;1.77;;;18.60;99.90;;;;;;5036917;28;20047;-69
2022/06/15 08:19:33;;;;;;;6.03;2.22;;;;;;;;;;5030470;28;20056;-70
2022/06/15 08:21:59;;;;;;;7.32;2.42;;;;;;;;;;5039229;28;20486;-70
2022/06/15 08:24:26;;;;;;;6.05;2.65;;;;;;;;;;5032479;28;20076;-70
2022/06/15 08:26:52;;;;;;;6.30;2.95;;;;;;;;;;5035629;28;20136;-70
2022/06/15 08:29:19;;;;;;;6.63;3.03;;;;;;;;;;5048857;28;20052;-70
2022/06/15 08:31:45;;;;;;;4.30;2.03;;;;;;;;;;5028738;28;20052;-69
2022/06/15 08:34:12;;;;;;;5.75;1.77;;;;;;;;;;5046468;28;20045;-69
2022/06/15 08:36:38;;;;;;;6.63;2.22;;;;;;;;;;5031447;28;20053;-69
2022/06/15 08:39:05;;;;;;;6.07;2.38;;;19.10;99.90;;;;;;5038107;28;20040;-69
2022/06/15 08:41:33;;;;;;;6.55;2.63;;;19.20;99.90;;;;;;5044692;28;20121;-69
2022/06/15 08:44:10;;;;;;;4.82;2.35;;;19.20;99.90;;;;;;5041037;28;20041;-69
2022/06/15 08:47:02;;;;;;;6.82;2.30;;;;;;;;;;5040462;28;20580;-69
2022/06/15 08:49:38;;;;;;;7.85;3.42;;;;;;;;;;5060225;28;20575;-69
2022/06/15 08:52:30;;;;;;;8.77;3.20;;;19.30;99.90;;;;;;5029665;28;20044;-69
2022/06/15 08:55:17;;;;;;;6.28;3.38;;;19.10;99.90;;;;;;5044399;28;20120;-69
2022/06/15 08:57:46;;;;;;;9.52;4.25;;;;;;;;;;5047425;28;20045;-69
2022/06/15 09:00:15;;;;;;;6.35;3.65;;;18.70;99.90;;;;;;5042735;28;20032;-66
2022/06/15 09:02:48;;;;;;;7.68;3.30;;;18.70;99.90;;;;;;5048566;28;20052;-66
2022/06/15 09:05:14;;;;;;;8.10;3.35;;;18.70;99.90;;;;;;5045322;28;20462;-66
2022/06/15 09:08:17;;;;;;;6.80;4.00;;;18.90;99.90;;;;;;5045956;28;20044;-67
2022/06/15 09:11:01;;;;;;;6.07;3.80;;;19.20;99.90;;;;;;5041878;28;20047;-67
2022/06/15 09:14:04;;;;;;;6.10;3.50;;;19.50;99.90;;;;;;5041412;28;20454;-67
2022/06/15 09:16:50;;;;;;;11.70;4.18;;;;;;;;;;5033081;28;20509;-67
2022/06/15 09:19:23;;;;;;;7.47;3.72;;;;;;;;;;5030209;28;20136;-66
2022/06/15 09:22:02;;;;;;;9.23;3.85;;;;;;;;;;5044743;28;20127;-66
2022/06/15 09:24:41;;;;;;;7.25;3.70;;;;;;;;;;5044012;28;20053;-66
2022/06/15 09:27:13;;;;;;;8.52;3.67;;;;;;;;;;5040522;28;20046;-67
2022/06/15 09:29:46;;;;;;;7.82;3.67;;;;;;;;;;5030952;28;20034;-67
2022/06/15 09:32:21;;;;;;;7.25;3.08;;;20.30;99.90;;;;;;5031007;28;20390;-66
2022/06/15 09:34:57;;;;;;;8.98;3.03;;;19.80;99.90;;;;;;5038821;28;20456;-67
2022/06/15 09:37:26;;;;;;;10.60;3.58;;;;;;;;;;5043599;28;20052;-65
2022/06/15 09:39:52;;;;;;;7.03;3.28;;;;;;;;;;5049669;28;20712;-65
2022/06/15 09:42:20;;;;;;;6.13;3.17;;;19.90;99.90;;;;;;5043965;28;20115;-66
2022/06/15 09:45:02;;;;;;;7.40;3.90;;;;;;;;;;5050001;28;20573;-66
2022/06/15 09:47:34;;;;;;;6.82;3.28;;;;;;;;;;5042700;28;20041;-66
2022/06/15 09:50:08;;;;;;;7.25;3.60;;;;;;;;;;5045570;28;20183;-66
2022/06/15 09:52:34;;;;;;;6.78;3.30;;;;;;;;;;5032196;28;20045;-65
2022/06/15 09:55:16;;;;;;;9.85;3.60;;;;;;;;;;5047340;28;20037;-66
2022/06/15 09:57:42;;;;;;;6.45;3.17;;;;;;;;;;5042374;28;20102;-65
2022/06/15 10:00:14;;;;;;;9.32;4.03;;;19.30;99.90;;;;;;5045282;28;20033;-65
2022/06/15 10:02:45;;;;;;;5.93;3.53;;;17.70;99.90;;;;;;5048075;28;20045;-65
2022/06/15 10:05:30;;;;;;;9.98;3.78;;;19.20;99.90;;;;;;5049569;28;20037;-66
2022/06/15 10:07:59;;;;;;;7.30;3.15;;;19.30;99.90;;;;;;5049991;28;20037;-66
2022/06/15 10:10:28;;;;;;;7.43;3.20;;;;;;;;;;5033419;28;20112;-66
2022/06/15 10:13:19;;;;;;;10.55;4.15;;;19.30;99.90;;;;;;5042374;28;20449;-66
2022/06/15 10:15:51;;;;;;;6.38;3.30;;;19.20;99.90;;;;;;5026409;28;20064;-66
2022/06/15 10:18:34;;;;;;;6.28;3.10;;;19.20;99.90;;;;;;5042675;28;20041;-66
2022/06/15 10:21:16;;;;;;;7.38;3.75;;;19.30;99.90;;;;;;5036710;28;20120;-66
2022/06/15 10:23:42;;;;;;;6.25;3.13;;;;;;;;;;5041423;28;20497;-64
2022/06/15 10:26:10;;;;;;;8.57;3.28;;;;;;;;;;5038149;28;20555;-65
2022/06/15 10:28:38;;;;;;;7.72;3.85;;;;;;;;;;5048943;28;20478;-66
2022/06/15 10:31:11;;;;;;;7.70;3.60;;;20.10;99.90;;;;;;5048538;28;20060;-66
2022/06/15 10:33:42;;;;;;;7.32;3.85;;;;;;;;;;5028384;28;20095;-66
2022/06/15 10:36:23;;;;;;;6.65;3.08;;;20.60;99.90;;;;;;5037418;28;20040;-66
2022/06/15 10:38:54;;;;;;;8.02;3.55;;;20.60;99.90;;;;;;5043603;28;20481;-66
2022/06/15 10:41:46;;;;;;;5.57;3.30;;;20.60;99.90;;;;;;5046926;28;20048;-66
2022/06/15 10:44:37;;;;;;;6.60;3.28;;;20.60;99.90;;;;;;5032156;28;20084;-66
2022/06/15 10:47:21;;;;;;;5.72;3.05;;;20.60;99.90;;;;;;5032777;28;20041;-63
2022/06/15 10:49:54;;;;;;;10.40;4.72;;;20.60;99.90;;;;;;5050754;28;20186;-65
2022/06/15 10:52:23;;;;;;;6.78;3.53;;;20.50;99.90;;;;;;5051928;28;20052;-63
2022/06/15 11:03:17;;;;;;;8.10;3.83;;;;;;;;;;5053343;28;20041;-67
2022/06/15 11:05:44;;;;;;;9.25;3.30;;;;;;;;;;5050936;28;20123;-67
2022/06/15 11:08:16;;;;;;;6.78;3.28;;;;;;;;;;5051714;28;20033;-67
2022/06/15 11:10:44;;;;;;;8.73;3.65;;;;;;;;;;5051835;28;20144;-67
2022/06/15 11:13:29;;;;;;;7.38;3.33;;;;;;;;;;5052328;28;20041;-66
2022/06/15 11:18:41;;;;;;;9.27;3.25;;;;;;;;;;5053015;28;20464;-67
2022/06/15 11:21:19;;;;;;;7.85;3.00;;;;;;;;;;5050338;28;20037;-66
2022/06/15 11:23:57;;;;;;;9.05;3.53;;;;;;;;;;5050978;28;20045;-67
2022/06/15 11:26:54;;;;;;;7.10;3.10;;;;;;;;;;5034955;28;20044;-67
2022/06/15 11:29:26;;;;;;;6.32;2.88;;;;;;;;;;5035349;28;20421;-66
2022/06/15 11:31:53;;;;;;;8.05;2.70;;;;;;;;;;5050808;28;20057;-67
2022/06/15 11:34:21;;;;;;;6.60;2.90;;;;;;;;;;5051027;28;20051;-67
2022/06/15 11:36:56;;;;;;;6.45;3.28;;;21.10;99.90;;;;;;5051200;28;20083;-66
2022/06/15 11:39:22;;;;;;;;;;;;;;;;;;5035049;28;20528;-66
2022/06/15 11:41:56;;;;;;;7.05;2.80;;;;;;;;;;5050476;28;19917;-67
2022/06/15 11:44:23;;;;;;;;;;;21.30;98.70;;;;;;5051835;28;20103;-67
2022/06/15 11:46:56;;;;;;;5.97;3.10;;;21.30;99.90;;;;;;5051771;28;19917;-67
2022/06/15 11:49:49;;;;;;;6.85;2.97;;;21.60;99.90;;;;;;5050935;28;20048;-67
2022/06/15 11:52:15;;;;;;;8.45;3.28;;;;;;;;;;5051092;28;20116;-67
2022/06/15 11:54:57;;;;;;;5.70;2.42;;;;;;;;;;5050881;28;20144;-67
2022/06/15 11:57:48;;;;;;;5.50;3.47;;;20.60;99.90;;;;;;5051476;28;20119;-67
2022/06/15 12:00:38;;;;;;;5.43;3.05;;;20.60;97.10;;;;;;5052292;28;20371;-67
2022/06/15 12:03:22;;;;;;;5.90;2.55;;;20.20;98.70;;;;;;5050015;28;20124;-66
2022/06/15 12:05:57;;;;;;;7.95;3.45;;;20.00;99.50;;;;;;5051964;28;20037;-66
2022/06/15 12:08:37;;;;;;;5.70;3.30;;;;;;;;;;5050969;28;20505;-67
2022/06/15 12:14:13;;;;;;;8.10;3.42;;;;;;;;;;5050172;28;20045;-67
2022/06/15 12:16:56;;;;;;;8.85;3.78;;;;;;;;;;5050632;28;20520;-67
2022/06/15 12:19:32;;;;;;;6.47;3.53;;;;;;;;;;5050935;28;20063;-67
2022/06/15 12:22:16;;;;;;;9.35;3.20;;;20.50;99.90;;;;;;5050086;28;20182;-67
2022/06/15 12:24:50;;;;;;;4.90;2.35;;;20.40;99.90;;;;;;5051786;28;20045;-67
2022/06/15 12:27:53;;;;;;;7.13;3.13;;;20.60;99.40;;;;;;5050605;28;20037;-67
2022/06/15 12:30:40;;;;;;;7.50;3.22;;;20.70;99.00;;;;;;5033686;28;20076;-67
2022/06/15 12:33:28;;;;;;;6.25;3.58;;;20.60;98.90;;;;;;5052319;28;20502;-67
2022/06/15 12:36:15;;;;;;;8.93;3.10;;;;;;;;;;5053966;28;20120;-67
2022/06/15 12:39:00;;;;;;;6.93;2.72;;;;;;;;;;5054148;28;20041;-67
2022/06/15 12:44:19;;;;;;;7.90;3.38;;;;;;;;;;5054045;28;20053;-67
2022/06/15 12:46:47;;;;;;;5.10;2.45;;;;;;;;;;5054760;28;20045;-67
2022/06/15 12:49:22;;;;;;;6.53;2.40;;;;;;;;;;5054041;28;20103;-67
2022/06/15 12:51:57;;;;;;;7.05;2.50;;;;;;;;;;5055124;28;20045;-67
2022/06/15 12:54:22;;;;;;;;;;;;;;;;;;5055178;28;20563;-67
2022/06/15 12:57:07;;;;;;;6.38;3.10;;;;;;;;;;5055182;28;19916;-67
2022/06/15 12:59:46;;;;;;;6.22;2.92;;;;;;;;;;5053904;28;20049;-67
2022/06/15 13:02:19;;;;;;;7.70;3.20;;;;;;;;;;5053970;28;20501;-67
2022/06/15 13:04:48;;;;;;;6.32;2.60;;;;;;;;;;5053854;28;20120;-67
2022/06/15 13:07:18;;;;;;;8.98;2.97;;;;;;;;;;5053881;28;20037;-67
2022/06/15 13:10:04;;;;;;;5.20;2.55;;;;;;;;;;5053771;28;20068;-67
2022/06/15 13:12:39;;;;;;;6.15;2.63;;;;;;;;;;5043427;28;20045;-67
2022/06/15 13:15:05;;;;;;;5.05;2.47;;;;;;;;;;5053847;28;20124;-67
2022/06/15 13:18:09;;;;;;;8.35;3.13;;;;;;;;;;5053979;28;20045;-67
2022/06/15 13:20:47;;;;;;;5.70;2.78;;;;;;;;;;5053613;28;20381;-67
2022/06/15 13:23:17;;;;;;;6.97;2.50;;;;;;;;;;5054955;28;20076;-67
2022/06/15 13:25:58;;;;;;;5.15;2.42;;;;;;;;;;5053672;28;20040;-67
2022/06/15 13:28:38;;;;;;;6.20;2.92;;;;;;;;;;5054878;28;20078;-67
2022/06/15 13:31:09;;;;;;;5.63;2.53;;;;;;;;;;5052957;28;20048;-68
2022/06/15 13:33:48;;;;;;;7.18;3.10;;;;;;;;;;5054656;28;20397;-67
2022/06/15 13:36:14;;;;;;;7.85;2.53;;;21.90;88.60;;;;;;5053793;28;20041;-67
2022/06/15 13:38:43;;;;;;;5.32;2.80;;;21.90;90.20;;;;;;5053500;28;20044;-67
2022/06/15 13:41:20;;;;;;;5.57;2.70;;;22.00;89.00;;;;;;5052766;28;20045;-67
2022/06/15 13:43:46;;;;;;;5.30;2.72;;;22.00;86.80;;;;;;5052870;28;20045;-67
2022/06/15 13:46:27;;;;;;;6.15;2.53;;;22.20;99.90;;;;;;5054068;28;20048;-67
2022/06/15 13:49:18;;;;;;;6.22;2.90;;;22.40;99.90;;;;;;5052527;28;20049;-67
2022/06/15 13:51:55;;;;;;;7.93;2.60;;;;;;;;;;5053150;28;20436;-67
2022/06/15 13:54:47;;;;;;;7.35;2.85;;;;;;;;;;5054360;28;20086;-67
2022/06/15 13:57:16;;;;;;;5.20;2.50;;;;;;;;;;5026998;28;20068;-68
2022/06/15 14:00:01;;;;;;;5.38;2.65;;;;;;;;;;5053117;28;20055;-68
2022/06/15 14:02:27;;;;;;;4.78;2.45;;;;;;;;;;5052707;28;20040;-68
2022/06/15 14:05:04;;;;;;;5.38;2.53;;;;;;;;;;5053740;28;20133;-68
2022/06/15 14:07:34;;;;;;;5.25;2.58;;;;;;;;;;5053121;28;20037;-68
2022/06/15 14:10:00;;;;;;;6.78;2.60;;;;;;;;;;5053088;28;20478;-67
2022/06/15 14:12:26;;;;;;;7.80;2.90;;;;;;;;;;5036243;28;20036;-68
2022/06/15 14:15:10;;;;;;;7.53;2.85;;;;;;;;;;5035866;28;20393;-68
2022/06/15 14:17:36;;;;;;;7.53;2.65;;;;;;;;;;5052391;28;20048;-68
2022/06/15 14:20:26;;;;;;;6.90;2.95;;;;;;;;;;5035850;28;20536;-68
2022/06/15 14:22:56;;;;;;;6.00;2.50;;;;;;;;;;5047269;28;20218;-68
2022/06/15 14:25:22;;;;;;;5.65;2.47;;;;;;;;;;5054287;28;20051;-68
2022/06/15 14:27:57;;;;;;;5.28;2.60;;;;;;;;;;5053718;28;20429;-67
2022/06/15 14:30:28;;;;;;;6.32;2.58;;;;;;;;;;5053269;28;20091;-68
2022/06/15 14:33:02;;;;;;;4.97;2.30;;;;;;;;;;5053291;28;20045;-68
2022/06/15 14:35:29;;;;;;;6.85;2.42;;;;;;;;;;5053911;28;20041;-68
2022/06/15 14:37:57;;;;;;;3.42;1.90;;;;;;;;;;5052784;28;20040;-68